Time;durP1;ratioP1;P1;durP2;ratioP2;P2;SDS_P1;SDS_P2;PMS_P1;PMS_P2;Temp;Humidity;BMP_temperature;BMP_pressure;BME280_temperature;BME280_humidity;BME280_pressure;Samples;Min_cycle;Max_cycle;Signal;HPM_P1;HPM_P2
2023/08/01 00:01:32;;;;;;;11.60;6.15;;;;;;;16.15;100.00;99678.16;5009917;28;20184;-56
2023/08/01 00:04:00;;;;;;;11.95;6.32;;;;;;;16.11;100.00;99676.81;5009467;28;20050;-61
2023/08/01 00:06:29;;;;;;;12.35;6.38;;;;;;;16.12;100.00;99675.84;5014233;28;20042;-61
2023/08/01 00:08:57;;;;;;;9.85;6.13;;;;;;;16.13;100.00;99674.84;5013927;28;20493;-61
2023/08/01 00:11:25;;;;;;;10.20;6.05;;;;;;;16.20;100.00;99673.19;5011895;28;20038;-56
2023/08/01 00:13:54;;;;;;;11.40;6.38;;;;;;;16.12;100.00;99673.19;5008662;28;20466;-56
2023/08/01 00:20:58;;;;;;;13.93;7.25;;;;;;;16.11;100.00;99676.00;5014281;28;20101;-61
2023/08/01 00:23:26;;;;;;;12.38;7.07;;;;;;;16.08;100.00;99673.69;5013992;28;20397;-61
2023/08/01 00:25:55;;;;;;;11.40;7.25;;;;;;;16.08;100.00;99681.66;5013732;28;20086;-62
2023/08/01 00:28:23;;;;;;;11.82;7.45;;;;;;;16.12;100.00;99682.97;5012652;28;20045;-56
2023/08/01 00:30:51;;;;;;;12.18;7.53;;;;;;;16.13;100.00;99679.31;5008946;28;20052;-56
2023/08/01 00:33:20;;;;;;;10.88;7.03;;;;;;;16.02;100.00;99673.34;5009540;28;20460;-57
2023/08/01 00:35:54;;;;;;;9.15;5.35;;;;;;;16.04;100.00;99670.53;5011187;28;20041;-57
2023/08/01 00:38:24;;;;;;;9.23;5.45;;;;;;;16.07;100.00;99669.38;5011107;28;20940;-57
2023/08/01 00:40:52;;;;;;;11.98;5.68;;;;;;;16.02;100.00;99660.09;5012391;28;20077;-56
2023/08/01 00:43:21;;;;;;;9.57;5.28;;;;;;;16.05;100.00;99656.28;5012559;28;20370;-57
2023/08/01 00:45:49;;;;;;;10.18;4.85;;;;;;;15.98;100.00;99649.97;5011635;28;20575;-56
2023/08/01 00:48:19;;;;;;;8.55;4.20;;;;;;;15.97;100.00;99651.78;5011889;28;20045;-56
2023/08/01 00:50:47;;;;;;;7.55;4.22;;;;;;;15.98;100.00;99639.34;5011411;28;20131;-56
2023/08/01 00:53:16;;;;;;;10.20;4.97;;;;;;;15.92;100.00;99643.50;5011046;28;20084;-57
2023/08/01 00:55:46;;;;;;;12.15;4.72;;;;;;;15.94;100.00;99643.31;5011394;28;20042;-56
2023/08/01 00:58:14;;;;;;;8.73;4.70;;;;;;;15.95;100.00;99645.00;5012414;28;20460;-56
2023/08/01 01:00:43;;;;;;;9.57;4.50;;;;;;;15.89;100.00;99639.34;5014293;28;20045;-56
2023/08/01 01:03:11;;;;;;;12.98;5.57;;;;;;;15.84;100.00;99631.06;5014589;28;20042;-56
2023/08/01 01:05:44;;;;;;;9.70;4.75;;;;;;;15.95;100.00;99635.22;5013274;28;20117;-62
2023/08/01 01:12:57;;;;;;;9.95;4.40;;;;;;;15.95;100.00;99635.22;5016908;28;20108;-62
2023/08/01 01:15:25;;;;;;;10.05;4.50;;;;;;;15.96;100.00;99646.66;5016401;28;20516;-62
2023/08/01 01:17:53;;;;;;;12.68;4.32;;;;;;;15.88;100.00;99636.84;5016520;28;20148;-62
2023/08/01 01:20:24;;;;;;;10.57;3.72;;;;;;;15.84;100.00;99632.88;5016624;28;20046;-62
2023/08/01 01:22:56;;;;;;;12.02;4.45;;;;;;;15.82;100.00;99630.41;5015469;28;20497;-62
2023/08/01 01:25:26;;;;;;;8.70;3.77;;;;;;;15.85;100.00;99635.38;5016679;28;20142;-62
2023/08/01 01:27:55;;;;;;;10.18;3.63;;;;;;;15.79;100.00;99630.69;5017185;28;20505;-62
2023/08/01 01:30:24;;;;;;;10.18;3.65;;;;;;;15.78;100.00;99634.34;5014929;28;20145;-62
2023/08/01 01:32:53;;;;;;;9.15;5.30;;;;;;;15.71;100.00;99626.22;5015672;28;20409;-63
2023/08/01 01:35:21;;;;;;;8.05;4.70;;;;;;;15.71;100.00;99631.50;5016557;28;20038;-62
2023/08/01 01:37:50;;;;;;;12.32;5.35;;;;;;;15.74;100.00;99624.22;5016510;28;20134;-63
2023/08/01 01:40:19;;;;;;;9.98;5.10;;;;;;;15.70;100.00;99636.97;5016462;28;20046;-64
2023/08/01 01:42:49;;;;;;;11.10;5.82;;;;;;;15.72;100.00;99627.88;5017391;28;20144;-62
2023/08/01 01:45:17;;;;;;;12.25;6.47;;;;;;;15.68;100.00;99621.25;5014219;28;20581;-62
2023/08/01 01:47:45;;;;;;;11.27;5.63;;;;;;;15.72;100.00;99619.91;5014400;28;20046;-56
2023/08/01 01:50:14;;;;;;;12.77;5.97;;;;;;;15.76;100.00;99619.59;5011674;28;20042;-56
2023/08/01 01:52:42;;;;;;;11.32;5.75;;;;;;;15.78;100.00;99620.25;5013429;28;20049;-56
2023/08/01 01:55:10;;;;;;;10.88;5.35;;;;;;;15.79;100.00;99620.09;5014876;28;20061;-57
2023/08/01 01:57:40;;;;;;;11.38;5.78;;;;;;;15.78;100.00;99612.31;5015187;28;20132;-62
2023/08/01 02:00:54;;;;;;;10.70;5.40;;;;;;;15.79;100.00;99613.94;5015799;28;20461;-61
2023/08/01 02:03:22;;;;;;;11.45;5.30;;;;;;;15.75;100.00;99610.81;5015719;28;20046;-62
2023/08/01 02:05:51;;;;;;;11.38;5.50;;;;;;;15.73;100.00;99604.84;5015710;28;20452;-61
2023/08/01 02:08:19;;;;;;;12.82;5.75;;;;;;;15.69;100.00;99607.00;5015956;28;20050;-61
2023/08/01 02:10:49;;;;;;;9.02;5.25;;;;;;;15.73;100.00;99607.47;5015580;28;20125;-61
2023/08/01 02:13:18;;;;;;;11.73;5.00;;;;;;;15.67;100.00;99608.97;5016331;28;20098;-62
2023/08/01 02:15:47;;;;;;;8.73;4.90;;;;;;;15.65;100.00;99607.47;5015415;28;20041;-62
2023/08/01 02:18:15;;;;;;;10.65;5.32;;;;;;;15.65;100.00;99608.31;5015481;28;20473;-62
2023/08/01 02:20:43;;;;;;;10.50;5.20;;;;;;;15.59;100.00;99606.31;5015948;28;20052;-62
2023/08/01 02:23:11;;;;;;;10.40;5.18;;;;;;;15.53;100.00;99605.13;5015333;28;20044;-61
2023/08/01 02:25:43;;;;;;;11.67;5.20;;;;;;;15.53;100.00;99599.03;5016151;28;20132;-62
2023/08/01 02:28:14;;;;;;;11.07;5.35;;;;;;;15.48;100.00;99604.78;5015556;28;20064;-61
2023/08/01 02:30:45;;;;;;;14.70;5.28;;;;;;;15.43;100.00;99606.28;5015025;28;20417;-61
2023/08/01 02:33:13;;;;;;;13.13;5.85;;;;;;;15.38;100.00;99604.13;5015520;28;20077;-61
2023/08/01 02:35:41;;;;;;;10.77;5.18;;;;;;;15.33;100.00;99596.63;5015381;28;20385;-61
2023/08/01 02:38:10;;;;;;;13.70;5.38;;;;;;;15.18;100.00;99601.72;5013786;28;20037;-61
2023/08/01 02:40:38;;;;;;;12.32;5.65;;;;;;;15.21;100.00;99604.06;5014750;28;20528;-56
2023/08/01 02:43:06;;;;;;;12.93;6.32;;;;;;;15.17;100.00;99602.72;5015198;28;20045;-61
2023/08/01 02:45:35;;;;;;;15.27;5.82;;;;;;;15.14;100.00;99602.22;5013686;28;20168;-61
2023/08/01 02:48:04;;;;;;;12.80;5.60;;;;;;;15.09;100.00;99597.38;5014768;28;20037;-61
2023/08/01 02:50:33;;;;;;;13.95;6.53;;;;;;;15.09;100.00;99602.66;5015136;28;20061;-62
2023/08/01 02:53:01;;;;;;;12.90;6.28;;;;;;;15.02;100.00;99601.66;5014814;28;20038;-61
2023/08/01 02:55:29;;;;;;;10.50;6.25;;;;;;;15.02;100.00;99601.66;5014063;28;20112;-61
2023/08/01 02:57:58;;;;;;;11.48;6.30;;;;;;;14.96;100.00;99600.47;5013152;28;20056;-55
2023/08/01 03:00:26;;;;;;;13.00;6.22;;;;;;;14.95;100.00;99604.09;5012769;28;20129;-55
2023/08/01 03:02:54;;;;;;;11.75;6.28;;;;;;;14.96;100.00;99603.13;5009695;28;20054;-55
2023/08/01 03:05:24;;;;;;;11.45;7.18;;;;;;;14.93;100.00;99610.53;5010523;28;20501;-62
2023/08/01 03:07:53;;;;;;;13.68;6.88;;;;;;;14.95;100.00;99600.63;5014454;28;20048;-62
2023/08/01 03:10:21;;;;;;;15.35;7.25;;;;;;;14.97;100.00;99602.16;5013709;28;20041;-55
2023/08/01 03:13:04;;;;;;;13.35;6.18;;;;;;;14.98;100.00;99606.47;5014259;28;20065;-62
2023/08/01 03:15:32;;;;;;;16.02;8.00;;;;;;;14.95;100.00;99598.81;5015455;28;20425;-62
2023/08/01 03:18:00;;;;;;;15.75;7.35;;;;;;;15.01;100.00;99592.06;5013031;28;20519;-62
2023/08/01 03:20:30;;;;;;;14.50;7.50;;;;;;;14.91;100.00;99594.81;5014568;28;20548;-61
2023/08/01 03:22:59;;;;;;;16.42;6.47;;;;;;;14.94;100.00;99596.31;5014235;28;20052;-62
2023/08/01 03:25:27;;;;;;;12.77;6.93;;;;;;;14.94;100.00;99597.16;5014184;28;20072;-62
2023/08/01 03:27:55;;;;;;;15.18;6.82;;;;;;;14.95;100.00;99598.81;5014264;28;20104;-56
2023/08/01 03:30:24;;;;;;;14.38;7.00;;;;;;;14.96;100.00;99599.66;5012632;28;20050;-56
2023/08/01 03:32:52;;;;;;;11.43;6.60;;;;;;;14.99;100.00;99599.34;5009961;28;20038;-56
2023/08/01 03:35:21;;;;;;;13.95;6.72;;;;;;;14.95;100.00;99598.81;5011911;28;20057;-61
2023/08/01 03:42:13;;;;;;;16.20;7.68;;;;;;;14.91;100.00;99608.06;5013470;28;20123;-61
2023/08/01 03:44:41;;;;;;;14.60;7.25;;;;;;;14.88;100.00;99593.31;5012332;28;20046;-61
2023/08/01 03:47:09;;;;;;;17.42;8.02;;;;;;;14.95;100.00;99606.75;5009577;28;20081;-61
2023/08/01 03:49:38;;;;;;;14.90;7.15;;;;;;;14.95;100.00;99601.47;5013215;28;20071;-56
2023/08/01 03:52:07;;;;;;;16.75;7.50;;;;;;;14.98;100.00;99595.88;5012470;28;20088;-56
2023/08/01 03:54:36;;;;;;;17.85;7.13;;;;;;;14.96;100.00;99597.84;5009278;28;20048;-62
2023/08/01 03:57:05;;;;;;;14.18;6.80;;;;;;;14.94;100.00;99597.16;5014297;28;20048;-61
2023/08/01 03:59:35;;;;;;;18.95;7.22;;;;;;;14.96;100.00;99600.47;5012474;28;20409;-62
2023/08/01 04:02:03;;;;;;;17.48;7.15;;;;;;;14.94;100.00;99605.09;5013308;28;20081;-56
2023/08/01 04:04:32;;;;;;;19.15;6.70;;;;;;;14.91;100.00;99609.88;5011478;28;20050;-56
2023/08/01 04:07:00;;;;;;;13.93;6.55;;;;;;;14.92;100.00;99607.06;5011283;28;20037;-62
2023/08/01 04:14:01;;;;;;;17.23;6.40;;;;;;;14.90;100.00;99605.56;5013826;28;20113;-61
2023/08/01 04:16:30;;;;;;;13.60;6.40;;;;;;;14.86;100.00;99610.34;5013988;28;20539;-62
2023/08/01 04:18:59;;;;;;;16.75;6.55;;;;;;;14.87;100.00;99612.00;5012124;28;20049;-56
2023/08/01 04:21:27;;;;;;;19.48;6.78;;;;;;;14.93;100.00;99611.41;5012396;28;20050;-61
2023/08/01 04:23:55;;;;;;;14.73;5.65;;;;;;;14.95;100.00;99617.34;5013455;28;20100;-61
2023/08/01 04:26:24;;;;;;;14.57;6.25;;;;;;;14.93;100.00;99614.03;5013383;28;20046;-61
2023/08/01 04:28:52;;;;;;;16.13;6.55;;;;;;;14.96;100.00;99615.53;5013436;28;20048;-56
2023/08/01 04:31:20;;;;;;;17.00;7.18;;;;;;;14.95;100.00;99605.94;5011803;28;20188;-56
2023/08/01 04:33:50;;;;;;;20.70;7.88;;;;;;;14.92;100.00;99600.97;5010757;28;20057;-56
2023/08/01 04:36:18;;;;;;;16.50;7.20;;;;;;;14.97;100.00;99614.53;5008760;28;20486;-55
2023/08/01 04:38:48;;;;;;;14.27;7.05;;;;;;;14.96;100.00;99602.31;5009721;28;20045;-55
2023/08/01 04:41:16;;;;;;;13.82;7.53;;;;;;;14.99;100.00;99602.81;5011960;28;20149;-55
2023/08/01 04:43:44;;;;;;;16.42;6.93;;;;;;;15.01;100.00;99598.19;5011607;28;20054;-56
2023/08/01 04:46:12;;;;;;;17.40;7.57;;;;;;;15.03;100.00;99598.03;5011502;28;20049;-56
2023/08/01 04:48:42;;;;;;;18.08;6.90;;;;;;;15.01;100.00;99595.53;5010041;28;20042;-56
2023/08/01 04:51:12;;;;;;;16.20;7.57;;;;;;;14.99;100.00;99597.50;5007988;28;20038;-56
2023/08/01 04:53:42;;;;;;;15.07;7.10;;;;;;;15.01;100.00;99600.00;5005950;28;20532;-56
2023/08/01 04:56:11;;;;;;;19.40;6.80;;;;;;;15.02;100.00;99602.50;5009978;28;20112;-56
2023/08/01 04:58:39;;;;;;;15.90;6.35;;;;;;;15.03;100.00;99614.72;5007904;28;20123;-56
2023/08/01 05:01:07;;;;;;;14.60;7.15;;;;;;;15.00;100.00;99612.41;5006718;28;20057;-58
2023/08/01 05:03:36;;;;;;;18.05;7.30;;;;;;;15.01;100.00;99607.94;5011733;28;20141;-56
2023/08/01 05:06:04;;;;;;;13.55;7.10;;;;;;;15.04;100.00;99605.81;5011479;28;20072;-56
2023/08/01 05:08:34;;;;;;;14.65;6.88;;;;;;;15.08;100.00;99616.91;5011551;28;20049;-56
2023/08/01 05:11:02;;;;;;;19.90;6.93;;;;;;;15.04;100.00;99613.75;5013739;28;20382;-62
2023/08/01 05:13:31;;;;;;;15.80;7.43;;;;;;;15.07;100.00;99609.97;5012167;28;20046;-56
2023/08/01 05:15:59;;;;;;;14.30;7.03;;;;;;;15.11;100.00;99611.31;5011651;28;20112;-56
2023/08/01 05:18:27;;;;;;;13.73;6.63;;;;;;;15.09;100.00;99612.44;5010537;28;20058;-61
2023/08/01 05:20:55;;;;;;;16.23;6.65;;;;;;;15.08;100.00;99611.63;5016477;28;20042;-61
2023/08/01 05:23:24;;;;;;;15.68;6.40;;;;;;;15.10;100.00;99619.41;5014669;28;20120;-55
2023/08/01 05:25:53;;;;;;;15.68;6.85;;;;;;;15.06;100.00;99632.13;5014912;28;20083;-61
2023/08/01 05:28:22;;;;;;;17.55;6.40;;;;;;;15.11;100.00;99629.84;5016864;28;20044;-61
2023/08/01 05:30:50;;;;;;;18.33;7.85;;;;;;;15.13;100.00;99635.78;5015941;28;20054;-56
2023/08/01 05:33:18;;;;;;;13.50;6.90;;;;;;;15.16;100.00;99638.13;5012415;28;20554;-56
2023/08/01 05:35:50;;;;;;;14.25;6.97;;;;;;;15.17;100.00;99642.44;5011326;28;20103;-56
2023/08/01 05:38:18;;;;;;;16.05;7.40;;;;;;;15.29;100.00;99645.63;5012457;28;20046;-56
2023/08/01 05:40:47;;;;;;;16.88;7.90;;;;;;;15.33;100.00;99646.97;5010576;28;20042;-55
2023/08/01 05:43:17;;;;;;;16.90;7.57;;;;;;;15.35;100.00;99654.75;5011741;28;20073;-56
2023/08/01 05:45:45;;;;;;;16.30;7.47;;;;;;;15.38;100.00;99655.25;5011057;28;20057;-56
2023/08/01 05:48:14;;;;;;;16.55;7.78;;;;;;;15.44;100.00;99652.97;5013405;28;20076;-56
2023/08/01 05:50:42;;;;;;;15.27;7.50;;;;;;;15.50;100.00;99649.66;5013968;28;20507;-56
2023/08/01 05:53:11;;;;;;;16.30;7.68;;;;;;;15.53;100.00;99650.19;5010345;28;20501;-55
2023/08/01 05:55:39;;;;;;;15.95;7.43;;;;;;;15.63;100.00;99642.09;5013779;28;20509;-62
2023/08/01 05:58:07;;;;;;;17.02;7.65;;;;;;;15.65;100.00;99655.16;5015544;28;20127;-56
2023/08/01 06:00:37;;;;;;;15.38;7.80;;;;;;;15.68;100.00;99655.69;5011565;28;20050;-56
2023/08/01 06:03:05;;;;;;;16.88;7.38;;;;;;;15.74;100.00;99650.75;5013361;28;20404;-61
2023/08/01 06:05:34;;;;;;;15.70;7.30;;;;;;;15.81;100.00;99643.81;5012364;28;20046;-55
2023/08/01 06:08:03;;;;;;;16.70;7.65;;;;;;;15.88;100.00;99650.13;5013993;28;20085;-56
2023/08/01 06:10:31;;;;;;;17.38;7.43;;;;;;;15.91;100.00;99649.81;5014385;28;20397;-56
2023/08/01 06:13:00;;;;;;;16.58;7.07;;;;;;;15.96;100.00;99649.31;5014786;28;20100;-56
2023/08/01 06:15:28;;;;;;;16.38;7.88;;;;;;;15.98;100.00;99657.91;5010770;28;20049;-56
2023/08/01 06:17:58;;;;;;;14.68;6.65;;;;;;;15.95;100.00;99660.91;5013583;28;20048;-60
2023/08/01 06:20:27;;;;;;;18.23;6.93;;;;;;;16.00;100.00;99672.66;5013901;28;20384;-56
2023/08/01 06:22:55;;;;;;;14.75;6.43;;;;;;;16.06;100.00;99668.56;5014981;28;20046;-61
2023/08/01 06:25:23;;;;;;;19.17;7.35;;;;;;;16.01;100.00;99666.38;5014883;28;20065;-61
2023/08/01 06:27:52;;;;;;;14.75;6.70;;;;;;;16.07;100.00;99672.03;5014591;28;20431;-61
2023/08/01 06:30:20;;;;;;;15.90;6.93;;;;;;;16.08;100.00;99677.16;5014450;28;20054;-62
2023/08/01 06:32:49;;;;;;;17.63;6.65;;;;;;;16.00;100.00;99664.72;5014419;28;20046;-61
2023/08/01 06:35:22;;;;;;;11.90;6.18;;;;;;;16.02;100.00;99673.34;5014504;28;20112;-61
2023/08/01 06:37:50;;;;;;;17.10;6.60;;;;;;;16.08;100.00;99674.50;5014896;28;20077;-60
2023/08/01 06:40:18;;;;;;;14.73;6.20;;;;;;;16.12;100.00;99672.38;5013630;28;20050;-61
2023/08/01 06:42:47;;;;;;;15.05;6.53;;;;;;;16.14;100.00;99683.63;5013617;28;20050;-61
2023/08/01 06:45:15;;;;;;;14.15;6.00;;;;;;;16.19;100.00;99686.63;5013079;28;20050;-61
2023/08/01 06:47:43;;;;;;;13.18;6.05;;;;;;;16.26;100.00;99684.97;5013122;28;20548;-61
2023/08/01 06:50:12;;;;;;;16.02;6.40;;;;;;;16.34;100.00;99686.81;5013023;28;20400;-61
2023/08/01 06:52:41;;;;;;;14.90;6.57;;;;;;;16.42;100.00;99680.66;5013005;28;20057;-61
2023/08/01 06:55:09;;;;;;;11.52;6.15;;;;;;;16.48;100.00;99690.59;5013140;28;20448;-62
2023/08/01 06:57:38;;;;;;;13.60;6.45;;;;;;;16.53;100.00;99677.66;5013346;28;20054;-62
2023/08/01 07:00:08;;;;;;;15.40;5.82;;;;;;;16.61;100.00;99690.94;5013185;28;20128;-61
2023/08/01 07:02:36;;;;;;;13.85;4.95;;;;;;;16.75;100.00;99685.94;5013221;28;20038;-60
2023/08/01 07:05:05;;;;;;;16.33;5.20;;;;;;;16.78;100.00;99682.94;5013211;28;20049;-60
2023/08/01 07:07:34;;;;;;;12.80;4.88;;;;;;;16.92;100.00;99676.16;5013001;28;20409;-60
2023/08/01 07:10:03;;;;;;;13.73;5.55;;;;;;;16.96;100.00;99686.28;5013012;28;20085;-56
2023/08/01 07:12:31;;;;;;;14.02;5.43;;;;;;;17.00;100.00;99687.59;5012108;28;20049;-56
2023/08/01 07:15:00;;;;;;;14.15;5.20;;;;;;;16.94;100.00;99688.25;5009573;28;20058;-61
2023/08/01 07:17:30;;;;;;;14.27;4.93;;;;;;;16.97;100.00;99692.41;5011969;28;20049;-60
2023/08/01 07:19:58;;;;;;;11.40;4.65;;;;;;;17.07;100.00;99693.06;5012582;28;20107;-60
2023/08/01 07:22:26;;;;;;;12.05;4.93;;;;;;;17.23;100.00;99689.50;5012904;28;20092;-60
2023/08/01 07:24:55;;;;;;;12.48;4.82;;;;;;;17.25;100.00;99700.78;5012661;28;20464;-60
2023/08/01 07:27:25;;;;;;;9.52;3.88;;;;;;;17.22;100.00;99696.66;5012831;28;20438;-59
2023/08/01 07:29:53;;;;;;;12.23;4.85;;;;;;;17.37;100.00;99696.75;5012448;28;20096;-60
2023/08/01 07:32:23;;;;;;;13.15;4.93;;;;;;;17.49;100.00;99697.22;5012776;28;20061;-59
2023/08/01 07:34:51;;;;;;;12.45;4.68;;;;;;;17.70;100.00;99693.13;5012538;28;20045;-55
2023/08/01 07:37:19;;;;;;;10.73;3.83;;;;;;;17.75;100.00;99688.09;5012661;28;20427;-54
2023/08/01 07:39:48;;;;;;;9.63;3.80;;;;;;;17.89;100.00;99691.88;5012433;28;20125;-54
2023/08/01 07:42:16;;;;;;;13.20;4.22;;;;;;;18.01;100.00;99690.50;5012366;28;20710;-55
2023/08/01 07:44:46;;;;;;;10.50;3.33;;;;;;;18.13;100.00;99688.22;5009849;28;20049;-55
2023/08/01 07:47:14;;;;;;;11.50;3.10;;;;;;;18.15;100.00;99696.88;5008103;28;20108;-54
2023/08/01 07:49:43;;;;;;;11.23;2.83;;;;;;;18.43;100.00;99696.31;5008711;28;20092;-55
2023/08/01 07:52:11;;;;;;;11.50;2.95;;;;;;;18.54;100.00;99700.38;5009331;28;20050;-55
2023/08/01 07:54:39;;;;;;;8.75;3.00;;;;;;;18.61;100.00;99700.50;5007083;28;20135;-60
2023/08/01 07:57:08;;;;;;;10.98;3.38;;;;;;;18.77;100.00;99694.19;5009053;28;20369;-59
2023/08/01 07:59:36;;;;;;;7.95;2.92;;;;;;;18.57;100.00;99700.03;5011227;28;20041;-55
2023/08/01 08:02:06;;;;;;;10.32;3.22;;;;;;;18.84;100.00;99693.31;5011985;28;20138;-55
2023/08/01 08:04:34;;;;;;;12.13;3.33;;;;;;;19.07;100.00;99692.41;5008786;28;20037;-56
2023/08/01 08:07:03;;;;;;;11.85;3.22;;;;;;;19.31;100.00;99701.97;5010648;28;20054;-56
2023/08/01 08:09:31;;;;;;;8.13;2.67;;;;;;;19.35;100.00;99700.59;5010677;28;20074;-55
2023/08/01 08:12:00;;;;;;;9.73;3.05;;;;;;;19.43;100.00;99694.34;5012087;28;20053;-59
2023/08/01 08:14:28;;;;;;;8.77;3.05;;;;;;;19.39;100.00;99701.88;5012229;28;20050;-59
2023/08/01 08:16:56;;;;;;;9.02;3.03;;;;;;;19.59;100.00;99701.28;5012080;28;20508;-60
2023/08/01 08:19:26;;;;;;;10.80;3.28;;;;;;;19.62;100.00;99706.28;5011777;28;20050;-59
2023/08/01 08:21:55;;;;;;;10.10;3.20;;;;;;;19.65;100.00;99702.41;5010722;28;20060;-60
2023/08/01 08:24:23;;;;;;;10.88;3.33;;;;;;;19.41;100.00;99709.69;5013103;28;20620;-62
2023/08/01 08:26:51;;;;;;;11.07;3.50;;;;;;;19.19;100.00;99701.59;5013622;28;20081;-62
2023/08/01 08:29:20;;;;;;;10.98;3.20;;;;;;;19.00;100.00;99720.81;5012399;28;20042;-61
2023/08/01 08:31:48;;;;;;;9.75;3.47;;;;;;;18.61;100.00;99714.66;5012097;28;20057;-61
2023/08/01 08:34:16;;;;;;;9.43;3.10;;;;;;;18.38;100.00;99717.34;5012022;28;20445;-61
2023/08/01 08:36:46;;;;;;;10.18;3.05;;;;;;;18.39;100.00;99721.63;5011779;28;20049;-60
2023/08/01 08:39:15;;;;;;;10.82;2.92;;;;;;;18.16;100.00;99724.28;5012334;28;20065;-61
2023/08/01 08:41:47;;;;;;;11.05;3.15;;;;;;;18.29;100.00;99713.91;5011735;28;20125;-56
2023/08/01 08:44:17;;;;;;;10.45;3.10;;;;;;;18.54;100.00;99719.03;5011871;28;20092;-60
2023/08/01 08:46:48;;;;;;;10.88;3.60;;;;;;;18.65;100.00;99707.13;5011833;28;20505;-60
2023/08/01 08:49:19;;;;;;;11.02;3.30;;;;;;;18.61;100.00;99713.81;5011839;28;20054;-61
2023/08/01 08:51:50;;;;;;;8.57;3.28;;;;;;;18.99;100.00;99720.00;5011603;28;20132;-60
2023/08/01 08:54:18;;;;;;;11.93;3.40;;;;;;;18.97;100.00;99721.19;5012236;28;20060;-56
2023/08/01 08:56:47;;;;;;;9.65;2.90;;;;;;;19.29;100.00;99709.31;5012595;28;20053;-56
2023/08/01 08:59:16;;;;;;;10.18;2.92;;;;;;;19.50;100.00;99705.91;5012743;28;20124;-56
2023/08/01 09:01:45;;;;;;;9.48;3.20;;;;;;;19.57;100.00;99714.00;5012007;28;20054;-56
2023/08/01 09:04:14;;;;;;;8.77;2.80;;;;;;;19.75;100.00;99705.59;5012598;28;20053;-56
2023/08/01 09:06:46;;;;;;;9.07;2.60;;;;;;;19.65;100.00;99708.56;5012108;28;20053;-56
2023/08/01 09:09:22;;;;;;;9.52;2.38;;;;;;;19.68;100.00;99716.16;5015316;28;20050;-56
2023/08/01 09:11:52;;;;;;;9.98;2.90;;;;;;;19.76;100.00;99715.25;5013500;28;20104;-56
2023/08/01 09:14:21;;;;;;;9.70;2.80;;;;;;;20.16;100.00;99715.69;5012010;28;20083;-56
2023/08/01 09:16:49;;;;;;;8.52;2.72;;;;;;;20.21;100.00;99715.97;5011429;28;20045;-55
2023/08/01 09:19:19;;;;;;;5.68;2.50;;;;;;;20.31;100.00;99712.97;5012088;28;20103;-56
2023/08/01 09:21:48;;;;;;;8.07;2.30;;;;;;;20.32;100.00;99714.63;5015178;28;20128;-55
2023/08/01 09:24:18;;;;;;;9.65;2.17;;;;;;;20.43;100.00;99715.97;5015359;28;20085;-56
2023/08/01 09:26:49;;;;;;;6.57;2.03;;;;;;;20.32;100.00;99716.47;5014918;28;20038;-54
2023/08/01 09:29:18;;;;;;;10.45;2.35;;;;;;;20.36;100.00;99720.41;5014881;28;20049;-56
2023/08/01 09:31:46;;;;;;;7.90;2.40;;;;;;;20.68;100.00;99727.09;5014761;28;20412;-56
2023/08/01 09:34:22;;;;;;;7.50;1.90;;;;;;;21.18;100.00;99732.38;5013947;28;20049;-56
2023/08/01 09:36:51;;;;;;;6.93;2.10;;;;;;;21.35;100.00;99738.25;5011560;28;20050;-53
2023/08/01 09:39:21;;;;;;;7.75;1.92;;;;;;;21.42;100.00;99733.75;5010373;28;20412;-55
2023/08/01 09:41:57;;;;;;;7.75;2.00;;;;;;;21.15;100.00;99745.31;5011383;28;20050;-56
2023/08/01 09:44:27;;;;;;;6.97;2.17;;;;;;;21.19;100.00;99746.56;5013851;28;20496;-56
2023/08/01 09:46:57;;;;;;;7.90;1.60;;;;;;;21.33;100.00;99748.28;5011077;28;20104;-56
2023/08/01 09:49:25;;;;;;;9.18;1.83;;;;;;;21.41;100.00;99737.44;5010046;28;20505;-57
2023/08/01 09:51:54;;;;;;;6.15;1.58;;;;;;;21.74;100.00;99754.69;5013744;28;20069;-59
2023/08/01 09:54:22;;;;;;;4.75;1.50;;;;;;;21.80;100.00;99767.28;5014409;28;20054;-59
2023/08/01 09:56:55;;;;;;;6.30;1.70;;;;;;;21.67;100.00;99759.19;5014354;28;20128;-59
2023/08/01 09:59:27;;;;;;;6.65;1.88;;;;;;;21.61;100.00;99766.19;5014305;28;20503;-59
2023/08/01 10:01:57;;;;;;;6.50;1.70;;;;;;;21.63;100.00;99755.28;5013703;28;20130;-59
2023/08/01 10:04:29;;;;;;;7.07;2.00;;;;;;;21.61;100.00;99760.81;5012469;28;20480;-59
2023/08/01 10:07:00;;;;;;;6.70;1.75;;;;;;;21.74;100.00;99757.38;5013810;28;20050;-58
2023/08/01 10:09:31;;;;;;;6.45;1.65;;;;;;;21.54;100.00;99757.28;5013873;28;20084;-58
2023/08/01 10:11:59;;;;;;;7.88;2.13;;;;;;;21.81;100.00;99762.75;5014063;28;20038;-59
2023/08/01 10:14:29;;;;;;;6.50;1.90;;;;;;;22.11;100.00;99766.78;5014321;28;20828;-59
2023/08/01 10:16:58;;;;;;;5.93;1.63;;;;;;;22.56;100.00;99765.44;5014021;28;20575;-59
2023/08/01 10:19:27;;;;;;;8.30;2.10;;;;;;;22.76;100.00;99763.59;5013818;28;20046;-59
2023/08/01 10:21:56;;;;;;;6.70;2.00;;;;;;;22.86;100.00;99765.84;5013601;28;20100;-59
2023/08/01 10:24:26;;;;;;;7.78;2.08;;;;;;;22.95;100.00;99761.94;5013654;28;20422;-58
2023/08/01 10:26:55;;;;;;;6.25;1.60;;;;;;;22.59;100.00;99765.84;5013604;28;20049;-58
2023/08/01 10:29:23;;;;;;;6.30;1.63;;;;;;;22.14;100.00;99772.75;5013505;28;20561;-58
2023/08/01 10:31:54;;;;;;;8.90;1.73;;;;;;;22.06;100.00;99768.38;5013208;28;20120;-58
2023/08/01 10:34:23;;;;;;;6.43;1.90;;;;;;;21.61;100.00;99777.69;5013737;28;20061;-59
2023/08/01 10:36:57;;;;;;;9.10;2.50;;;;;;;22.24;100.00;99762.47;5013685;28;20100;-59
2023/08/01 10:39:27;;;;;;;7.20;2.10;;;;;;;22.25;100.00;99798.91;5013420;28;20050;-59
2023/08/01 10:41:59;;;;;;;6.30;1.52;;;;;;;22.45;100.00;99774.91;5013291;28;20046;-59
2023/08/01 10:44:28;;;;;;;;;;;;;;;22.94;100.00;99773.66;5013856;28;20094;-59
2023/08/01 10:47:00;;;;;;;8.43;2.20;;;;;;;23.09;100.00;99769.97;5013395;28;19976;-60
2023/08/01 10:49:37;;;;;;;6.03;1.60;;;;;;;23.25;100.00;99774.91;5011927;28;20062;-59
2023/08/01 10:52:17;;;;;;;5.47;1.60;;;;;;;23.40;100.00;99772.00;5013420;28;20042;-59
2023/08/01 10:54:45;;;;;;;7.47;1.83;;;;;;;23.14;100.00;99767.50;5012650;28;20050;-56
2023/08/01 10:57:17;;;;;;;5.57;1.50;;;;;;;23.18;100.00;99782.16;5009660;28;20493;-56
2023/08/01 10:59:45;;;;;;;9.18;2.22;;;;;;;23.37;100.00;99774.25;5010806;28;20100;-55
2023/08/01 11:02:21;;;;;;;7.53;1.77;;;;;;;23.30;100.00;99782.31;5011077;28;20049;-55
2023/08/01 11:05:00;;;;;;;8.38;2.33;;;;;;;23.61;100.00;99778.13;5009595;28;20053;-55
2023/08/01 11:07:29;;;;;;;8.00;1.85;;;;;;;23.99;100.00;99777.38;5012172;28;20056;-55
2023/08/01 11:10:08;;;;;;;8.27;2.10;;;;;;;24.09;100.00;99788.50;5007848;28;20054;-59
2023/08/01 11:12:38;;;;;;;5.90;1.95;;;;;;;24.42;100.00;99787.47;5010711;28;20049;-58
2023/08/01 11:15:08;;;;;;;7.38;2.25;;;;;;;24.23;100.00;99783.06;5012669;28;20053;-59
2023/08/01 11:17:39;;;;;;;6.65;2.03;;;;;;;23.99;100.00;99780.06;5012181;28;20149;-59
2023/08/01 11:20:09;;;;;;;8.00;2.53;;;;;;;24.37;100.00;99789.97;5012703;28;20136;-58
2023/08/01 11:22:39;;;;;;;8.32;1.70;;;;;;;24.62;100.00;99787.38;5012518;28;20046;-55
2023/08/01 11:25:08;;;;;;;5.78;1.98;;;;;;;24.98;100.00;99790.38;5011374;28;20057;-54
2023/08/01 11:27:36;;;;;;;9.88;2.28;;;;;;;25.05;100.00;99793.03;5012525;28;20092;-54
2023/08/01 11:30:06;;;;;;;5.22;1.50;;;;;;;25.33;100.00;99792.56;5012167;28;20120;-59
2023/08/01 11:32:35;;;;;;;7.93;1.60;;;;;;;25.33;100.00;99803.31;5012409;28;20088;-59
2023/08/01 11:35:05;;;;;;;7.32;1.88;;;;;;;25.81;100.00;99801.78;5012576;28;20034;-58
2023/08/01 11:37:34;;;;;;;6.53;1.77;;;;;;;25.56;100.00;99804.53;5012304;28;20587;-59
2023/08/01 11:40:03;;;;;;;7.13;1.70;;;;;;;25.87;98.23;99808.94;5012153;28;20100;-58
2023/08/01 11:42:33;;;;;;;6.90;1.80;;;;;;;26.12;100.00;99814.25;5012208;28;20041;-59
2023/08/01 11:45:12;;;;;;;5.60;1.90;;;;;;;26.60;100.00;99811.69;5012215;28;20057;-59
2023/08/01 11:47:46;;;;;;;8.60;2.03;;;;;;;26.19;100.00;99807.94;5012324;28;20049;-58